Time;durP1;ratioP1;P1;durP2;ratioP2;P2;SDS_P1;SDS_P2;PMS_P1;PMS_P2;Temp;Humidity;BMP_temperature;BMP_pressure;BME280_temperature;BME280_humidity;BME280_pressure;Samples;Min_cycle;Max_cycle;Signal;HPM_P1;HPM_P2
2021/04/28 00:00:39;;;;;;;5.32;1.77;;;18.20;43.90;;;;;;4984491;28;20190;-80
2021/04/28 00:03:06;;;;;;;3.33;1.80;;;18.20;43.90;;;;;;4984103;28;20701;-78
2021/04/28 00:05:32;;;;;;;3.72;1.90;;;18.20;43.60;;;;;;4968267;28;20172;-78
2021/04/28 00:07:59;;;;;;;2.63;1.80;;;18.20;44.00;;;;;;5002274;28;20160;-77
2021/04/28 00:10:28;;;;;;;4.70;1.73;;;18.20;43.90;;;;;;5001968;28;20274;-78
2021/04/28 00:13:03;;;;;;;3.13;1.67;;;18.10;43.90;;;;;;4984937;28;20240;-80
2021/04/28 00:15:31;;;;;;;4.50;1.95;;;18.20;43.80;;;;;;4984318;28;20154;-78
2021/04/28 00:17:57;;;;;;;2.90;1.65;;;18.20;44.00;;;;;;5002529;28;20625;-77
2021/04/28 00:20:24;;;;;;;3.88;1.70;;;18.20;43.90;;;;;;5001965;28;20164;-80
2021/04/28 00:22:50;;;;;;;4.05;1.95;;;18.20;44.00;;;;;;5001393;28;20187;-80
2021/04/28 00:25:18;;;;;;;4.15;2.00;;;18.20;43.90;;;;;;4968580;28;20176;-78
2021/04/28 00:27:45;;;;;;;3.33;1.90;;;18.10;44.00;;;;;;4984495;28;20160;-79
2021/04/28 00:30:14;;;;;;;2.25;1.60;;;18.10;44.00;;;;;;4984563;28;20273;-79
2021/04/28 00:32:41;;;;;;;4.20;1.67;;;18.10;43.90;;;;;;4984039;28;20161;-78
2021/04/28 00:35:11;;;;;;;3.20;1.80;;;18.10;43.90;;;;;;5001531;28;20168;-79
2021/04/28 00:37:38;;;;;;;3.40;1.55;;;18.10;43.90;;;;;;5001594;28;20244;-80
2021/04/28 00:40:30;;;;;;;2.35;1.50;;;18.10;44.00;;;;;;5001425;28;20157;-78
2021/04/28 00:42:57;;;;;;;2.45;1.67;;;18.10;44.10;;;;;;4983872;28;20235;-79
2021/04/28 00:45:25;;;;;;;2.58;1.60;;;18.10;44.00;;;;;;5001999;28;20211;-79
2021/04/28 00:47:52;;;;;;;2.38;1.60;;;18.10;43.90;;;;;;5000187;28;20163;-76
2021/04/28 00:50:21;;;;;;;2.65;1.60;;;18.10;43.90;;;;;;5000912;28;20191;-78
2021/04/28 00:52:47;;;;;;;3.30;1.70;;;18.10;43.90;;;;;;4984647;28;20211;-79
2021/04/28 00:55:14;;;;;;;4.20;1.85;;;18.10;43.90;;;;;;4983548;28;20156;-76
2021/04/28 00:57:40;;;;;;;4.30;1.90;;;18.10;43.90;;;;;;4983815;28;20156;-81
2021/04/28 01:00:12;;;;;;;3.17;1.80;;;18.10;44.00;;;;;;4968454;28;20163;-77
2021/04/28 01:02:38;;;;;;;3.60;1.58;;;18.10;43.90;;;;;;4983852;28;20149;-80
2021/04/28 01:05:06;;;;;;;3.95;1.70;;;18.10;44.10;;;;;;5001488;28;20503;-80
2021/04/28 01:07:32;;;;;;;5.10;1.55;;;18.10;43.90;;;;;;5001489;28;20164;-77
2021/04/28 01:09:59;;;;;;;4.05;2.00;;;18.10;43.90;;;;;;5000708;28;20588;-76
2021/04/28 01:12:33;;;;;;;4.13;1.80;;;18.10;44.50;;;;;;4983712;28;20235;-79
2021/04/28 01:15:00;;;;;;;4.97;1.73;;;18.10;43.70;;;;;;4983792;28;20604;-78
2021/04/28 01:17:26;;;;;;;2.75;1.90;;;18.10;43.70;;;;;;5001395;28;20160;-78
2021/04/28 01:19:53;;;;;;;2.75;1.98;;;18.10;43.80;;;;;;5001260;28;20160;-80
2021/04/28 01:22:19;;;;;;;4.60;1.73;;;18.10;44.00;;;;;;4983202;28;20156;-79
2021/04/28 01:24:45;;;;;;;2.45;1.70;;;18.10;43.90;;;;;;4982919;28;20156;-79
2021/04/28 01:27:13;;;;;;;3.67;2.08;;;18.10;43.70;;;;;;5001209;28;20634;-80
2021/04/28 01:29:40;;;;;;;2.33;1.58;;;18.10;43.90;;;;;;4983677;28;20172;-77
2021/04/28 01:32:05;;;;;;;3.03;1.75;;;18.10;43.80;;;;;;4983970;28;20529;-76
2021/04/28 01:34:31;;;;;;;5.35;1.70;;;18.10;43.90;;;;;;4967375;28;20162;-78
2021/04/28 01:36:56;;;;;;;3.05;1.70;;;18.10;43.70;;;;;;4967260;28;20258;-78
2021/04/28 01:39:22;;;;;;;4.38;1.70;;;18.10;43.80;;;;;;4967640;28;20159;-75
2021/04/28 01:41:48;;;;;;;2.28;1.52;;;18.10;43.90;;;;;;4967322;28;20164;-78
2021/04/28 01:44:16;;;;;;;3.53;1.67;;;18.10;43.90;;;;;;4967153;28;20183;-78
2021/04/28 01:46:42;;;;;;;2.60;1.60;;;18.10;43.90;;;;;;4983544;28;20175;-80
2021/04/28 01:49:08;;;;;;;4.05;1.75;;;18.10;43.80;;;;;;5000428;28;20587;-77
2021/04/28 01:51:34;;;;;;;3.35;1.73;;;18.10;43.90;;;;;;4983106;28;20266;-79
2021/04/28 01:54:01;;;;;;;2.40;1.60;;;18.10;43.90;;;;;;4967861;28;20167;-77
2021/04/28 01:56:27;;;;;;;2.38;1.70;;;18.10;43.70;;;;;;4967827;28;20210;-78
2021/04/28 01:58:53;;;;;;;2.40;1.90;;;18.10;43.90;;;;;;4967013;28;20516;-76
2021/04/28 02:01:18;;;;;;;3.38;1.83;;;18.10;43.80;;;;;;4983082;28;20164;-79
2021/04/28 02:03:44;;;;;;;4.78;1.70;;;18.10;43.90;;;;;;4950713;28;20235;-79
2021/04/28 02:06:10;;;;;;;3.90;1.80;;;18.10;43.80;;;;;;4983346;28;20237;-79
2021/04/28 02:08:36;;;;;;;2.97;1.67;;;18.10;43.80;;;;;;4982226;28;20521;-76
2021/04/28 02:11:02;;;;;;;2.60;1.60;;;18.10;43.90;;;;;;4982793;28;20192;-79
2021/04/28 02:13:31;;;;;;;2.70;1.70;;;18.10;43.90;;;;;;5000065;28;20244;-79
2021/04/28 02:15:59;;;;;;;3.58;1.83;;;18.10;44.00;;;;;;4966433;28;20182;-77
2021/04/28 02:18:27;;;;;;;3.05;1.40;;;18.10;43.90;;;;;;4999989;28;20157;-79
2021/04/28 02:20:53;;;;;;;3.70;1.70;;;18.00;44.10;;;;;;4982600;28;20163;-79
2021/04/28 02:23:18;;;;;;;3.85;1.80;;;18.00;43.90;;;;;;5000336;28;20184;-79
2021/04/28 02:25:44;;;;;;;2.13;1.60;;;18.10;43.90;;;;;;4982943;28;20571;-77
2021/04/28 02:28:11;;;;;;;3.20;1.80;;;18.10;44.00;;;;;;4999915;28;20164;-76
2021/04/28 02:30:36;;;;;;;3.58;1.67;;;18.00;43.90;;;;;;4999826;28;20649;-78
2021/04/28 02:33:02;;;;;;;2.85;1.55;;;18.00;43.90;;;;;;4982807;28;20157;-79
2021/04/28 02:35:28;;;;;;;3.20;1.70;;;18.00;43.90;;;;;;4982095;28;20624;-80
2021/04/28 02:38:37;;;;;;;3.35;1.48;;;18.00;43.90;;;;;;5000064;28;20164;-79
2021/04/28 02:41:04;;;;;;;2.20;1.70;;;18.00;44.00;;;;;;5000266;28;20506;-77
2021/04/28 02:43:31;;;;;;;3.50;1.75;;;18.00;43.80;;;;;;4982553;28;20171;-77
2021/04/28 02:45:57;;;;;;;4.50;1.77;;;18.10;43.90;;;;;;4982870;28;20563;-77
2021/04/28 02:48:24;;;;;;;3.10;1.67;;;18.10;43.80;;;;;;4982876;28;20211;-77
2021/04/28 02:50:51;;;;;;;4.05;1.75;;;18.00;43.70;;;;;;4982156;28;20204;-78
2021/04/28 02:53:17;;;;;;;3.55;2.03;;;18.00;44.10;;;;;;4982772;28;20164;-78
2021/04/28 02:55:43;;;;;;;2.40;1.80;;;18.00;43.90;;;;;;4982646;28;20163;-78
2021/04/28 02:58:08;;;;;;;2.97;1.77;;;18.00;43.90;;;;;;4982171;28;20160;-79
2021/04/28 03:00:34;;;;;;;2.45;1.90;;;18.00;43.90;;;;;;4965846;28;20152;-82
2021/04/28 03:03:00;;;;;;;2.20;1.63;;;18.00;43.90;;;;;;4982292;28;20270;-78
2021/04/28 03:05:26;;;;;;;5.25;1.90;;;18.00;44.00;;;;;;4982781;28;20156;-78
2021/04/28 03:07:53;;;;;;;2.35;2.08;;;18.00;44.00;;;;;;4965855;28;20179;-79
2021/04/28 03:10:19;;;;;;;2.42;1.67;;;18.00;43.80;;;;;;4982309;28;20219;-80
2021/04/28 03:12:45;;;;;;;3.65;2.00;;;18.00;44.00;;;;;;4999418;28;20160;-76
2021/04/28 03:15:14;;;;;;;2.55;1.67;;;18.00;43.90;;;;;;4982309;28;20227;-78
2021/04/28 03:17:40;;;;;;;2.53;1.70;;;18.00;43.70;;;;;;4982387;28;20188;-80
2021/04/28 03:20:07;;;;;;;2.40;1.70;;;18.00;43.90;;;;;;4999635;28;20157;-77
2021/04/28 03:22:33;;;;;;;4.60;1.90;;;18.00;44.00;;;;;;4966279;28;20630;-77
2021/04/28 03:24:58;;;;;;;3.33;1.90;;;18.00;43.90;;;;;;4966485;28;20157;-78
2021/04/28 03:27:25;;;;;;;3.35;1.67;;;18.00;44.10;;;;;;4982543;28;20172;-77
2021/04/28 03:29:52;;;;;;;4.20;2.10;;;18.00;44.10;;;;;;4982655;28;20152;-77
2021/04/28 03:32:17;;;;;;;2.50;1.70;;;17.90;44.20;;;;;;4982967;28;20239;-78
2021/04/28 03:34:43;;;;;;;3.72;1.88;;;17.90;44.10;;;;;;4983893;28;20160;-80
2021/04/28 03:37:09;;;;;;;1.90;1.55;;;17.90;44.30;;;;;;5001096;28;20159;-80
2021/04/28 03:39:34;;;;;;;2.03;1.40;;;17.90;44.20;;;;;;4983958;28;20152;-79
2021/04/28 03:42:00;;;;;;;1.92;1.55;;;17.90;44.10;;;;;;4967313;28;20532;-79
2021/04/28 03:44:26;;;;;;;3.67;1.63;;;17.90;44.10;;;;;;4967314;28;20686;-78
2021/04/28 03:46:52;;;;;;;3.35;1.80;;;17.90;44.00;;;;;;4967096;28;20183;-79
2021/04/28 03:49:17;;;;;;;3.65;1.67;;;17.90;44.30;;;;;;5001117;28;20168;-79
2021/04/28 03:51:44;;;;;;;2.22;1.65;;;17.90;44.10;;;;;;4966615;28;20184;-79
2021/04/28 03:54:12;;;;;;;2.30;1.67;;;17.90;44.10;;;;;;4965936;28;20168;-80
2021/04/28 03:56:38;;;;;;;5.13;1.80;;;17.90;44.00;;;;;;5000043;28;20624;-78
2021/04/28 03:59:05;;;;;;;2.58;1.52;;;17.90;44.10;;;;;;5000666;28;20156;-77
2021/04/28 04:01:32;;;;;;;2.42;1.65;;;17.90;44.20;;;;;;5000472;28;20599;-79
2021/04/28 04:03:57;;;;;;;3.58;1.60;;;17.80;44.10;;;;;;4982679;28;20234;-79
2021/04/28 04:06:24;;;;;;;4.82;1.60;;;17.90;44.20;;;;;;4984037;28;20168;-80
2021/04/28 04:08:50;;;;;;;2.22;1.63;;;17.90;43.70;;;;;;4983880;28;20239;-80
2021/04/28 04:11:15;;;;;;;2.78;1.50;;;17.90;44.00;;;;;;4967444;28;20223;-77
2021/04/28 04:13:41;;;;;;;3.25;1.70;;;17.90;43.50;;;;;;5001316;28;20671;-78
2021/04/28 04:16:07;;;;;;;2.47;1.70;;;17.90;43.60;;;;;;5001043;28;20188;-78
2021/04/28 04:18:33;;;;;;;4.10;1.75;;;18.00;43.40;;;;;;4983328;28;20495;-78
2021/04/28 04:20:58;;;;;;;2.58;1.52;;;18.00;43.30;;;;;;4983397;28;20619;-78
2021/04/28 04:23:24;;;;;;;2.33;1.50;;;18.00;43.40;;;;;;4985901;28;20199;-76
2021/04/28 04:25:50;;;;;;;5.13;2.13;;;18.00;43.10;;;;;;4986918;28;20152;-78
2021/04/28 04:28:16;;;;;;;1.88;1.67;;;18.00;43.20;;;;;;5004072;28;20540;-77
2021/04/28 04:30:42;;;;;;;2.03;1.60;;;18.00;43.20;;;;;;5003874;28;20554;-79
2021/04/28 04:33:10;;;;;;;2.63;1.83;;;18.10;43.30;;;;;;4955241;28;20263;-78
2021/04/28 04:35:37;;;;;;;2.67;1.75;;;18.10;42.80;;;;;;5006461;28;20494;-77
2021/04/28 04:38:02;;;;;;;2.65;1.60;;;18.10;42.80;;;;;;4973356;28;20155;-79
2021/04/28 04:40:28;;;;;;;3.75;1.77;;;18.10;42.60;;;;;;4989643;28;20168;-78
2021/04/28 04:42:54;;;;;;;3.38;1.60;;;18.10;43.00;;;;;;5006604;28;20168;-79
2021/04/28 04:45:19;;;;;;;2.58;1.63;;;18.20;42.80;;;;;;4989609;28;20168;-79
2021/04/28 04:47:45;;;;;;;2.80;1.83;;;18.10;43.00;;;;;;5007077;28;20164;-78
2021/04/28 04:50:11;;;;;;;2.75;1.70;;;18.10;43.50;;;;;;4989967;28;20157;-80
2021/04/28 04:52:38;;;;;;;3.45;1.65;;;18.10;43.30;;;;;;5006520;28;20219;-79
2021/04/28 04:55:04;;;;;;;4.30;1.73;;;18.10;43.00;;;;;;4989488;28;20148;-80
2021/04/28 04:57:30;;;;;;;1.67;1.38;;;18.10;43.20;;;;;;5006571;28;20164;-79
2021/04/28 04:59:56;;;;;;;1.83;1.58;;;18.20;42.80;;;;;;5006180;28;20156;-79
2021/04/28 05:02:22;;;;;;;2.50;1.67;;;18.20;43.10;;;;;;5006616;28;20635;-80
2021/04/28 05:04:47;;;;;;;2.15;1.77;;;18.20;42.60;;;;;;4987672;28;20247;-79
2021/04/28 05:07:13;;;;;;;2.00;1.38;;;18.20;42.40;;;;;;5005688;28;20676;-78
2021/04/28 05:09:39;;;;;;;2.47;1.50;;;18.20;42.30;;;;;;5017750;28;20179;-78
2021/04/28 05:12:05;;;;;;;2.47;1.63;;;18.20;43.00;;;;;;5005856;28;20223;-79
2021/04/28 05:14:31;;;;;;;2.50;1.50;;;18.20;42.50;;;;;;5019724;28;20210;-77
2021/04/28 05:16:56;;;;;;;2.55;1.77;;;18.20;42.50;;;;;;5002609;28;20163;-77
2021/04/28 05:19:22;;;;;;;1.83;1.60;;;18.20;42.50;;;;;;5002359;28;20178;-79
2021/04/28 05:21:49;;;;;;;1.60;1.50;;;18.20;42.70;;;;;;4985273;28;20623;-79
2021/04/28 05:24:14;;;;;;;2.47;1.85;;;18.30;42.50;;;;;;5009792;28;20190;-77
2021/04/28 05:26:40;;;;;;;1.67;1.52;;;18.30;42.10;;;;;;5000171;28;20623;-76
2021/04/28 05:29:06;;;;;;;1.48;1.38;;;18.40;42.00;;;;;;4999719;28;20168;-75
2021/04/28 05:31:31;;;;;;;2.95;1.58;;;18.40;42.00;;;;;;4999486;28;20188;-78
2021/04/28 05:33:58;;;;;;;1.83;1.52;;;18.30;42.10;;;;;;4998420;28;20574;-79
2021/04/28 05:36:24;;;;;;;2.75;1.58;;;18.30;42.50;;;;;;4998351;28;20159;-78
2021/04/28 05:38:50;;;;;;;2.40;1.73;;;18.30;42.10;;;;;;4999912;28;20156;-79
2021/04/28 05:41:16;;;;;;;1.65;1.52;;;18.40;41.80;;;;;;4982746;28;20160;-76
2021/04/28 05:43:42;;;;;;;2.30;1.58;;;18.40;41.70;;;;;;4984460;28;20171;-76
2021/04/28 05:46:10;;;;;;;2.35;1.48;;;18.40;42.00;;;;;;5000281;28;20164;-79
2021/04/28 05:48:36;;;;;;;2.05;1.60;;;18.40;41.90;;;;;;4983704;28;20543;-80
2021/04/28 05:51:01;;;;;;;2.28;1.65;;;18.40;42.50;;;;;;4983742;28;20271;-80
2021/04/28 05:53:27;;;;;;;2.38;1.50;;;18.40;42.30;;;;;;5000187;28;20215;-77
2021/04/28 05:55:53;;;;;;;2.58;1.73;;;18.40;42.30;;;;;;4983367;28;20164;-77
2021/04/28 05:58:19;;;;;;;2.63;1.40;;;18.40;42.50;;;;;;4966093;28;20667;-77
2021/04/28 06:00:45;;;;;;;1.95;1.55;;;18.40;42.50;;;;;;5000344;28;20220;-78
2021/04/28 06:03:10;;;;;;;2.92;1.80;;;18.40;42.60;;;;;;4999434;28;20217;-77
2021/04/28 06:05:36;;;;;;;2.15;1.70;;;18.40;42.60;;;;;;4982188;28;20180;-75
2021/04/28 06:08:02;;;;;;;1.95;1.48;;;18.40;42.50;;;;;;4982020;28;20243;-78
2021/04/28 06:10:28;;;;;;;1.60;1.50;;;18.40;42.50;;;;;;5000146;28;20656;-78
2021/04/28 06:12:53;;;;;;;1.50;1.38;;;18.40;42.40;;;;;;4968389;28;20255;-79
2021/04/28 06:15:19;;;;;;;2.47;1.50;;;18.40;42.00;;;;;;5001428;28;20171;-76
2021/04/28 06:17:45;;;;;;;1.63;1.50;;;18.40;41.60;;;;;;5002049;28;20156;-79
2021/04/28 06:20:19;;;;;;;1.85;1.60;;;18.50;41.50;;;;;;4967964;28;20203;-78
2021/04/28 06:22:51;;;;;;;2.55;1.60;;;18.50;41.30;;;;;;4986238;28;20164;-82
2021/04/28 06:25:44;;;;;;;3.20;1.48;;;18.50;41.80;;;;;;4943024;28;20169;-81
2021/04/28 06:28:13;;;;;;;1.83;1.33;;;18.40;42.10;;;;;;4940248;28;20255;-82
2021/04/28 06:30:38;;;;;;;1.83;1.40;;;18.50;41.70;;;;;;4990752;28;20275;-81
2021/04/28 06:33:04;;;;;;;1.88;1.33;;;18.50;41.60;;;;;;4981634;28;20203;-82
2021/04/28 06:35:31;;;;;;;1.88;1.50;;;18.50;41.70;;;;;;4964048;28;20607;-81
2021/04/28 06:37:57;;;;;;;2.78;1.55;;;18.60;41.30;;;;;;4978808;28;20160;-82
2021/04/28 06:40:33;;;;;;;1.67;1.42;;;18.60;41.70;;;;;;4968101;28;20176;-81
2021/04/28 06:43:20;;;;;;;;;;;;;;;;;;;;;
2021/04/28 06:46:05;;;;;;;;;;;;;;;;;;;;;
2021/04/28 06:48:31;;;;;;;1.63;1.25;;;18.50;41.70;;;;;;4937477;28;20271;-82
2021/04/28 06:51:03;;;;;;;2.30;1.70;;;18.50;41.80;;;;;;4965983;28;20218;-83
2021/04/28 06:53:31;;;;;;;2.22;1.15;;;18.50;41.70;;;;;;4966475;28;20627;-82
2021/04/28 06:56:10;;;;;;;1.35;1.25;;;18.70;41.50;;;;;;5000101;28;20274;-83
2021/04/28 06:58:38;;;;;;;1.80;1.23;;;18.60;41.60;;;;;;4965819;28;20171;-82
2021/04/28 07:01:38;;;;;;;1.85;1.52;;;18.60;41.70;;;;;;4983709;28;20179;-84
2021/04/28 07:04:04;;;;;;;2.25;1.63;;;18.60;41.80;;;;;;4925317;29;20233;-85
2021/04/28 07:06:31;;;;;;;4.03;1.60;;;18.60;41.60;;;;;;4904280;29;20198;-81
2021/04/28 07:08:57;;;;;;;4.60;1.70;;;18.60;41.70;;;;;;4905902;29;20217;-80
2021/04/28 07:11:22;;;;;;;3.92;1.92;;;18.70;41.80;;;;;;4936918;29;20228;-80
2021/04/28 07:13:48;;;;;;;3.65;1.58;;;18.70;41.50;;;;;;4909296;29;20206;-80
2021/04/28 07:16:14;;;;;;;2.00;1.65;;;18.60;41.90;;;;;;4900383;29;20206;-80
2021/04/28 07:18:39;;;;;;;3.22;1.80;;;18.60;42.80;;;;;;4917806;29;20619;-80
2021/04/28 07:21:05;;;;;;;2.40;1.65;;;18.50;42.90;;;;;;4916780;29;20195;-80
2021/04/28 07:23:32;;;;;;;2.33;1.50;;;18.50;43.00;;;;;;4916195;29;20299;-80
2021/04/28 07:26:00;;;;;;;1.77;1.63;;;18.50;42.80;;;;;;4917249;29;20178;-79
2021/04/28 07:28:27;;;;;;;1.75;1.45;;;18.40;42.70;;;;;;4936232;29;20657;-78
2021/04/28 07:30:53;;;;;;;4.15;1.50;;;18.50;42.60;;;;;;4936689;29;20309;-79
2021/04/28 07:33:19;;;;;;;2.42;1.77;;;18.50;42.30;;;;;;4920387;29;20598;-78
2021/04/28 07:35:45;;;;;;;3.45;1.40;;;18.50;42.40;;;;;;4919235;29;20208;-78
2021/04/28 07:38:12;;;;;;;3.05;1.60;;;18.60;42.30;;;;;;4920249;29;20210;-79
2021/04/28 07:40:38;;;;;;;2.15;1.35;;;18.60;42.30;;;;;;4949181;28;20212;-78
2021/04/28 07:43:05;;;;;;;2.90;1.75;;;18.60;42.30;;;;;;4977830;28;20153;-78
2021/04/28 07:45:35;;;;;;;2.65;1.50;;;18.60;42.30;;;;;;4959431;28;20162;-79
2021/04/28 07:48:21;;;;;;;3.45;1.52;;;18.60;42.80;;;;;;4984927;28;20246;-79
2021/04/28 07:50:55;;;;;;;3.25;1.50;;;18.70;42.20;;;;;;4964894;28;20223;-80
2021/04/28 07:53:30;;;;;;;1.80;1.20;;;18.70;42.30;;;;;;4980107;28;20175;-80
2021/04/28 07:56:03;;;;;;;5.20;1.73;;;18.70;41.70;;;;;;4994348;28;20167;-79
2021/04/28 07:58:31;;;;;;;1.60;1.50;;;18.70;41.80;;;;;;5005805;28;20164;-80
2021/04/28 08:01:05;;;;;;;1.48;1.38;;;18.70;42.40;;;;;;5006970;28;20184;-79
2021/04/28 08:03:31;;;;;;;1.60;1.50;;;18.70;42.30;;;;;;4973294;28;20581;-80
2021/04/28 08:05:57;;;;;;;1.95;1.42;;;18.60;42.00;;;;;;4960927;28;20180;-79
2021/04/28 08:08:23;;;;;;;2.63;1.42;;;18.60;42.30;;;;;;4988902;28;20187;-79
2021/04/28 08:10:48;;;;;;;2.72;1.60;;;18.60;42.60;;;;;;5006655;28;20234;-78
2021/04/28 08:13:15;;;;;;;2.20;1.38;;;18.60;42.80;;;;;;4971025;28;20636;-79
2021/04/28 08:15:41;;;;;;;1.90;1.70;;;18.60;42.60;;;;;;4966728;28;20173;-80
2021/04/28 08:18:16;;;;;;;1.45;1.35;;;18.60;42.30;;;;;;4983804;28;20146;-79
2021/04/28 08:20:41;;;;;;;2.28;1.58;;;18.50;43.30;;;;;;4968837;28;20179;-78
2021/04/28 08:23:08;;;;;;;2.00;1.50;;;18.50;42.70;;;;;;4965582;28;20161;-79
2021/04/28 08:25:35;;;;;;;2.05;1.50;;;18.50;42.30;;;;;;4980786;28;20153;-79
2021/04/28 08:28:04;;;;;;;1.83;1.60;;;18.60;42.50;;;;;;4979644;28;20179;-80
2021/04/28 08:30:31;;;;;;;2.58;1.48;;;18.60;42.90;;;;;;4983020;28;20192;-79
2021/04/28 08:32:56;;;;;;;2.13;1.48;;;18.60;42.60;;;;;;4980178;28;20171;-79
2021/04/28 08:35:23;;;;;;;2.75;1.38;;;18.60;42.70;;;;;;4982490;28;20526;-79
2021/04/28 08:37:57;;;;;;;3.78;1.48;;;18.60;42.30;;;;;;4983266;28;20152;-79
2021/04/28 08:40:24;;;;;;;1.80;1.38;;;18.60;42.30;;;;;;5000602;28;20202;-79
2021/04/28 08:42:50;;;;;;;1.65;1.52;;;18.70;42.80;;;;;;4986003;28;20145;-79
2021/04/28 08:45:19;;;;;;;2.25;1.70;;;18.70;42.60;;;;;;5006141;28;20191;-78
2021/04/28 08:47:46;;;;;;;1.60;1.48;;;18.60;42.30;;;;;;5001811;28;20174;-80
2021/04/28 08:50:15;;;;;;;2.28;1.42;;;18.70;41.90;;;;;;5000364;28;20151;-78
2021/04/28 08:52:55;;;;;;;1.95;1.75;;;18.70;42.50;;;;;;4983583;28;20215;-80
2021/04/28 08:55:22;;;;;;;2.25;1.30;;;18.60;42.10;;;;;;4971447;28;20172;-80
2021/04/28 08:57:49;;;;;;;5.75;1.60;;;18.70;41.90;;;;;;4985672;28;20161;-78
2021/04/28 09:00:18;;;;;;;2.33;1.50;;;18.70;42.70;;;;;;4972272;28;20627;-81
2021/04/28 09:03:10;;;;;;;4.00;1.80;;;18.60;42.80;;;;;;4987217;28;20601;-79
2021/04/28 09:05:38;;;;;;;1.55;1.45;;;18.60;42.60;;;;;;4928618;29;20189;-79
2021/04/28 09:08:10;;;;;;;3.65;1.65;;;18.70;42.30;;;;;;4945055;29;20174;-80
2021/04/28 09:10:36;;;;;;;4.28;1.55;;;18.60;42.80;;;;;;4928237;29;20214;-80
2021/04/28 09:13:04;;;;;;;4.85;2.00;;;18.70;42.30;;;;;;4940766;29;20159;-80
2021/04/28 09:15:32;;;;;;;11.57;2.05;;;18.70;42.20;;;;;;4924955;29;20166;-79
2021/04/28 09:17:57;;;;;;;8.45;2.13;;;18.70;42.60;;;;;;4942780;29;20257;-80
2021/04/28 09:20:34;;;;;;;17.42;2.45;;;18.70;42.60;;;;;;4943793;29;20154;-80
2021/04/28 09:23:11;;;;;;;15.68;2.15;;;18.70;42.60;;;;;;4942714;29;20264;-79
2021/04/28 09:25:44;;;;;;;20.67;2.80;;;18.70;42.80;;;;;;4942652;29;20154;-80
2021/04/28 09:28:34;;;;;;;25.65;2.75;;;18.70;43.00;;;;;;4940772;29;20167;-80
2021/04/28 09:31:05;;;;;;;15.02;2.58;;;18.60;43.00;;;;;;4942527;29;20220;-80
2021/04/28 09:33:41;;;;;;;14.07;2.50;;;18.70;42.60;;;;;;4941055;29;20221;-80
2021/04/28 09:36:08;;;;;;;10.57;2.05;;;18.70;43.00;;;;;;4940242;29;20241;-80
2021/04/28 09:38:57;;;;;;;9.13;1.95;;;18.60;42.80;;;;;;4941617;29;20162;-80
2021/04/28 09:41:41;;;;;;;10.07;1.80;;;18.70;42.70;;;;;;4870119;29;20207;-79
2021/04/28 09:44:19;;;;;;;10.85;1.77;;;18.70;42.70;;;;;;4922000;29;20163;-80
2021/04/28 09:46:58;;;;;;;9.15;1.90;;;18.70;42.80;;;;;;4922419;29;20186;-79
2021/04/28 09:49:25;;;;;;;4.22;1.63;;;18.70;42.90;;;;;;4922359;29;20176;-80
2021/04/28 09:51:56;;;;;;;7.72;1.77;;;18.70;42.60;;;;;;4906388;29;20217;-80
2021/04/28 09:54:27;;;;;;;6.93;1.90;;;18.70;42.90;;;;;;4907172;29;20159;-80
2021/04/28 09:56:54;;;;;;;3.70;1.85;;;18.60;42.70;;;;;;4906739;29;20562;-80
2021/04/28 09:59:21;;;;;;;8.85;1.65;;;18.70;42.40;;;;;;4905608;29;20179;-80
2021/04/28 10:01:47;;;;;;;7.40;1.90;;;18.60;42.60;;;;;;4922093;29;20630;-79
2021/04/28 10:04:25;;;;;;;11.38;2.08;;;18.70;42.80;;;;;;4906342;29;20291;-80
2021/04/28 10:06:52;;;;;;;8.20;1.88;;;18.60;42.30;;;;;;4921631;29;20174;-79
2021/04/28 10:09:30;;;;;;;4.75;1.70;;;18.70;42.50;;;;;;4924188;29;20171;-79
2021/04/28 10:11:56;;;;;;;12.82;2.00;;;18.70;42.80;;;;;;4904156;29;20214;-80
2021/04/28 10:14:22;;;;;;;9.77;2.35;;;18.70;42.60;;;;;;4920620;29;20226;-79
2021/04/28 10:16:48;;;;;;;6.18;2.03;;;18.60;42.60;;;;;;4920497;29;20179;-79
2021/04/28 10:19:17;;;;;;;12.07;2.08;;;18.70;42.40;;;;;;4970175;28;20195;-80
2021/04/28 10:21:43;;;;;;;3.45;1.73;;;18.70;42.90;;;;;;4945780;28;20169;-80
2021/04/28 10:24:11;;;;;;;5.72;1.90;;;18.70;42.30;;;;;;4960723;28;20168;-80
2021/04/28 10:26:37;;;;;;;5.90;1.98;;;18.70;42.00;;;;;;4960299;28;20195;-80
2021/04/28 10:29:03;;;;;;;8.57;1.73;;;18.60;42.80;;;;;;4944304;28;20553;-80
2021/04/28 10:31:30;;;;;;;6.85;1.98;;;18.60;42.50;;;;;;4941700;28;20691;-79
2021/04/28 10:33:56;;;;;;;6.45;1.90;;;18.70;42.30;;;;;;4975733;28;20164;-79
2021/04/28 10:36:22;;;;;;;5.25;1.40;;;18.70;42.20;;;;;;4944149;28;20153;-80
2021/04/28 10:38:48;;;;;;;6.95;1.77;;;18.70;42.00;;;;;;4945911;28;20530;-80
2021/04/28 10:41:40;;;;;;;4.32;1.60;;;18.70;42.00;;;;;;4942083;28;20160;-79
2021/04/28 10:44:27;;;;;;;4.22;1.65;;;18.70;41.90;;;;;;4978014;28;20161;-79
2021/04/28 10:47:24;;;;;;;5.13;1.65;;;18.70;42.70;;;;;;4975982;28;20180;-79
2021/04/28 10:50:27;;;;;;;3.92;1.70;;;18.70;42.70;;;;;;4975755;28;20260;-79
2021/04/28 10:53:00;;;;;;;3.80;1.77;;;18.60;42.60;;;;;;4975314;28;20167;-79
2021/04/28 10:55:44;;;;;;;2.55;1.70;;;18.60;42.60;;;;;;4975153;28;20200;-79
2021/04/28 10:58:28;;;;;;;4.35;1.80;;;18.60;42.20;;;;;;4975428;28;20164;-79
2021/04/28 11:01:05;;;;;;;8.55;1.63;;;18.70;41.90;;;;;;4975160;28;20169;-79
2021/04/28 11:03:32;;;;;;;6.85;1.67;;;18.60;42.60;;;;;;4981448;28;20212;-79
2021/04/28 11:06:17;;;;;;;4.43;1.90;;;18.70;42.60;;;;;;4977268;28;20183;-79
2021/04/28 11:08:43;;;;;;;4.85;1.80;;;18.80;42.30;;;;;;4970111;28;20259;-78
2021/04/28 11:11:36;;;;;;;6.55;2.30;;;18.70;42.60;;;;;;4974184;28;20189;-79
2021/04/28 11:14:29;;;;;;;4.75;1.63;;;18.70;42.70;;;;;;4971354;28;20267;-78
2021/04/28 11:17:00;;;;;;;3.25;2.10;;;18.70;42.30;;;;;;4972349;28;20169;-78
2021/04/28 11:19:33;;;;;;;8.00;1.98;;;18.70;42.90;;;;;;4974732;28;20186;-79
2021/04/28 11:22:28;;;;;;;7.15;2.15;;;18.70;43.30;;;;;;4956949;28;20187;-78
2021/04/28 11:24:55;;;;;;;5.35;1.52;;;18.70;43.60;;;;;;4975170;28;20157;-79
2021/04/28 11:27:53;;;;;;;6.00;1.75;;;18.60;43.00;;;;;;4956628;28;20239;-78
2021/04/28 11:30:19;;;;;;;5.30;1.90;;;18.60;43.00;;;;;;4931451;29;20649;-79
2021/04/28 11:33:04;;;;;;;5.15;1.60;;;18.60;44.30;;;;;;4934871;29;20185;-79
2021/04/28 11:35:29;;;;;;;3.97;1.83;;;18.60;42.90;;;;;;4936988;29;20186;-79
2021/04/28 11:38:08;;;;;;;4.45;1.65;;;18.60;43.00;;;;;;4921169;29;20178;-79
2021/04/28 11:40:55;;;;;;;4.10;1.65;;;18.60;43.00;;;;;;4919310;29;20290;-80
2021/04/28 11:43:24;;;;;;;4.32;1.73;;;18.60;42.80;;;;;;4937889;29;20547;-79
2021/04/28 11:45:51;;;;;;;3.15;1.65;;;18.60;43.30;;;;;;4919282;29;20170;-80
2021/04/28 11:48:18;;;;;;;2.33;1.60;;;18.60;42.80;;;;;;4921764;29;20193;-79
2021/04/28 11:50:51;;;;;;;5.45;2.03;;;18.60;43.00;;;;;;4921647;29;20214;-79
2021/04/28 11:53:18;;;;;;;4.18;1.83;;;18.70;43.30;;;;;;4937397;29;20282;-79
2021/04/28 11:55:44;;;;;;;6.18;2.10;;;18.70;42.90;;;;;;4937253;29;20158;-78
2021/04/28 11:58:27;;;;;;;4.88;1.70;;;18.60;43.70;;;;;;4921401;29;20169;-78
2021/04/28 12:01:06;;;;;;;6.10;1.73;;;18.70;43.10;;;;;;4937456;29;20182;-79
2021/04/28 12:03:53;;;;;;;4.22;1.70;;;18.70;43.30;;;;;;4937630;29;20341;-80
2021/04/28 12:06:28;;;;;;;2.95;1.63;;;18.70;43.00;;;;;;4949808;28;20184;-78
2021/04/28 12:09:36;;;;;;;4.00;1.77;;;18.70;43.20;;;;;;4996405;28;20643;-80
2021/04/28 12:12:09;;;;;;;4.65;1.92;;;18.70;42.80;;;;;;4901936;29;20214;-80
2021/04/28 12:14:35;;;;;;;3.90;2.00;;;18.70;43.90;;;;;;4902164;29;20671;-79
2021/04/28 12:17:00;;;;;;;4.68;1.80;;;18.70;43.90;;;;;;4901893;29;20281;-79
2021/04/28 12:19:27;;;;;;;3.67;1.80;;;18.70;43.50;;;;;;4917244;29;20178;-79
2021/04/28 12:22:03;;;;;;;2.83;1.75;;;18.70;43.60;;;;;;4900561;29;20233;-77
2021/04/28 12:24:37;;;;;;;3.05;1.83;;;18.60;44.10;;;;;;4901289;29;20257;-78
2021/04/28 12:27:09;;;;;;;6.07;2.10;;;18.60;44.20;;;;;;4901843;29;20257;-78
2021/04/28 12:29:36;;;;;;;3.92;1.73;;;18.60;43.80;;;;;;4919105;29;20194;-79
2021/04/28 12:32:02;;;;;;;5.20;1.98;;;18.60;43.90;;;;;;4884675;29;20221;-78
2021/04/28 12:34:28;;;;;;;4.28;1.98;;;18.70;43.80;;;;;;4885793;29;20179;-79
2021/04/28 12:37:06;;;;;;;4.30;1.75;;;18.70;43.30;;;;;;4917010;29;20163;-78
2021/04/28 12:39:35;;;;;;;5.90;1.70;;;18.70;43.90;;;;;;4933854;29;20174;-79
2021/04/28 12:42:01;;;;;;;6.32;2.22;;;18.70;42.50;;;;;;4918729;29;20189;-78
2021/04/28 12:44:26;;;;;;;11.40;2.75;;;18.70;43.60;;;;;;4919496;29;20166;-78
2021/04/28 12:46:53;;;;;;;10.10;1.88;;;18.70;43.10;;;;;;4920335;29;20175;-79
2021/04/28 12:49:24;;;;;;;11.85;2.35;;;18.60;43.70;;;;;;4971896;28;20238;-79
2021/04/28 12:51:51;;;;;;;9.63;2.10;;;18.60;43.40;;;;;;4972754;28;20210;-79
2021/04/28 12:54:33;;;;;;;10.82;2.42;;;18.70;42.90;;;;;;4962104;28;20183;-79
2021/04/28 12:57:03;;;;;;;10.05;1.85;;;18.70;43.50;;;;;;4962406;28;20581;-77
2021/04/28 12:59:29;;;;;;;8.38;2.03;;;18.70;43.70;;;;;;4979246;28;20243;-79